Terminal Aerodrome Forecast
Issued by NWS

Home | Current Version | Previous Version | Text Only | Print | Product List | Glossary On
Versions: 1 2 3 4 5 6 7 8 9 10 11 12 13 14 15 16 17 18 19 20 21 22 23 24 25 26 27 28
000
FTUS45 KLKN 062320
TAFEKO
TAF
KEKO 062320Z 0700/0724 29012KT P6SM VCTS BKN080CB
      TEMPO 0700/0702 VRB15G32KT BKN070CB
     FM070300 35012KT P6SM SCT050 BKN080
     FM071200 23008KT P6SM -RA BKN050 OVC070
     FM071700 03012G22KT P6SM -SHRA OVC040=

USA.gov is the U.S. government's official web portal to all federal, state and local government web resources and services.